sensor_id;sensor_type;location;lat;lon;timestamp;P1;durP1;ratioP1;P2;durP2;ratioP2
19402;SDS011;9837;48.888;8.998;2022-09-09T08:01:59;14.83;;;10.80;;
19402;SDS011;9837;48.888;8.998;2022-09-09T08:35:51;9.10;;;8.27;;
19402;SDS011;9837;48.888;8.998;2022-09-09T09:25:32;23.30;;;18.23;;
19402;SDS011;9837;48.888;8.998;2022-09-09T10:36:24;9.70;;;8.30;;
19402;SDS011;9837;48.888;8.998;2022-09-09T10:39:06;16.23;;;9.90;;
19402;SDS011;9837;48.888;8.998;2022-09-09T10:44:25;12.47;;;4.97;;
19402;SDS011;9837;48.888;8.998;2022-09-09T10:55:11;11.73;;;7.70;;
19402;SDS011;9837;48.888;8.998;2022-09-09T10:58:02;14.37;;;8.63;;
19402;SDS011;9837;48.888;8.998;2022-09-09T11:00:58;9.93;;;7.87;;
19402;SDS011;9837;48.888;8.998;2022-09-09T11:04:22;18.63;;;11.70;;
19402;SDS011;9837;48.888;8.998;2022-09-09T11:06:51;18.13;;;13.53;;
19402;SDS011;9837;48.888;8.998;2022-09-09T11:09:47;11.43;;;8.20;;
19402;SDS011;9837;48.888;8.998;2022-09-09T11:12:50;8.07;;;6.43;;
19402;SDS011;9837;48.888;8.998;2022-09-09T11:15:28;16.27;;;8.37;;
19402;SDS011;9837;48.888;8.998;2022-09-09T11:18:33;21.37;;;7.53;;
19402;SDS011;9837;48.888;8.998;2022-09-09T11:21:44;5.43;;;2.63;;
19402;SDS011;9837;48.888;8.998;2022-09-09T11:29:00;6.70;;;2.90;;
19402;SDS011;9837;48.888;8.998;2022-09-09T11:31:44;4.97;;;3.47;;
19402;SDS011;9837;48.888;8.998;2022-09-09T11:37:10;5.07;;;3.63;;
19402;SDS011;9837;48.888;8.998;2022-09-09T11:40:19;7.27;;;4.70;;
19402;SDS011;9837;48.888;8.998;2022-09-09T11:46:11;6.03;;;4.30;;
19402;SDS011;9837;48.888;8.998;2022-09-09T12:01:45;5.43;;;4.83;;
19402;SDS011;9837;48.888;8.998;2022-09-09T12:04:31;6.13;;;5.30;;
19402;SDS011;9837;48.888;8.998;2022-09-09T12:17:22;12.33;;;9.93;;
19402;SDS011;9837;48.888;8.998;2022-09-09T12:20:14;10.60;;;9.23;;
19402;SDS011;9837;48.888;8.998;2022-09-09T12:23:22;18.57;;;8.00;;
19402;SDS011;9837;48.888;8.998;2022-09-09T12:26:36;47.33;;;16.53;;
19402;SDS011;9837;48.888;8.998;2022-09-09T12:29:34;21.33;;;16.43;;
19402;SDS011;9837;48.888;8.998;2022-09-09T12:32:15;33.57;;;17.77;;
19402;SDS011;9837;48.888;8.998;2022-09-09T12:34:55;19.57;;;14.23;;
19402;SDS011;9837;48.888;8.998;2022-09-09T12:37:40;26.73;;;15.73;;
19402;SDS011;9837;48.888;8.998;2022-09-09T12:40:53;28.67;;;16.70;;
19402;SDS011;9837;48.888;8.998;2022-09-09T12:46:02;38.93;;;18.77;;
19402;SDS011;9837;48.888;8.998;2022-09-09T12:48:39;22.23;;;19.27;;
19402;SDS011;9837;48.888;8.998;2022-09-09T12:51:28;22.10;;;15.13;;
19402;SDS011;9837;48.888;8.998;2022-09-09T12:53:55;20.13;;;12.77;;
19402;SDS011;9837;48.888;8.998;2022-09-09T12:56:31;16.47;;;13.47;;
19402;SDS011;9837;48.888;8.998;2022-09-09T12:59:00;19.53;;;12.97;;
19402;SDS011;9837;48.888;8.998;2022-09-09T13:01:30;24.23;;;12.50;;
19402;SDS011;9837;48.888;8.998;2022-09-09T13:03:59;23.13;;;15.33;;
19402;SDS011;9837;48.888;8.998;2022-09-09T13:06:29;26.83;;;15.97;;
19402;SDS011;9837;48.888;8.998;2022-09-09T13:08:57;36.67;;;17.53;;
19402;SDS011;9837;48.888;8.998;2022-09-09T13:14:01;15.20;;;13.13;;
19402;SDS011;9837;48.888;8.998;2022-09-09T13:16:29;45.42;;;20.02;;
19402;SDS011;9837;48.888;8.998;2022-09-09T13:19:00;20.50;;;15.90;;
19402;SDS011;9837;48.888;8.998;2022-09-09T13:21:35;15.18;;;12.48;;
19402;SDS011;9837;48.888;8.998;2022-09-09T13:24:03;21.25;;;13.65;;
19402;SDS011;9837;48.888;8.998;2022-09-09T13:27:23;14.03;;;12.63;;
19402;SDS011;9837;48.888;8.998;2022-09-09T13:30:20;27.63;;;16.17;;
19402;SDS011;9837;48.888;8.998;2022-09-09T13:33:00;18.93;;;13.43;;
19402;SDS011;9837;48.888;8.998;2022-09-09T13:35:49;20.10;;;13.50;;
19402;SDS011;9837;48.888;8.998;2022-09-09T13:38:20;17.67;;;15.73;;
19402;SDS011;9837;48.888;8.998;2022-09-09T13:49:00;31.58;;;19.58;;
19402;SDS011;9837;48.888;8.998;2022-09-09T13:51:34;22.40;;;16.48;;
19402;SDS011;9837;48.888;8.998;2022-09-09T13:54:03;28.85;;;16.83;;
19402;SDS011;9837;48.888;8.998;2022-09-09T13:56:45;23.00;;;17.35;;
19402;SDS011;9837;48.888;8.998;2022-09-09T13:59:12;24.33;;;16.50;;
19402;SDS011;9837;48.888;8.998;2022-09-09T14:01:43;21.43;;;16.23;;
19402;SDS011;9837;48.888;8.998;2022-09-09T14:04:11;22.60;;;16.02;;
19402;SDS011;9837;48.888;8.998;2022-09-09T14:06:37;17.83;;;15.88;;
19402;SDS011;9837;48.888;8.998;2022-09-09T14:09:07;19.02;;;13.43;;
19402;SDS011;9837;48.888;8.998;2022-09-09T14:11:37;19.55;;;13.20;;
19402;SDS011;9837;48.888;8.998;2022-09-09T14:14:02;23.15;;;14.90;;
19402;SDS011;9837;48.888;8.998;2022-09-09T14:16:28;21.45;;;15.05;;
19402;SDS011;9837;48.888;8.998;2022-09-09T14:18:54;27.08;;;18.13;;
19402;SDS011;9837;48.888;8.998;2022-09-09T14:21:22;23.75;;;17.38;;
19402;SDS011;9837;48.888;8.998;2022-09-09T14:23:49;23.90;;;20.92;;
19402;SDS011;9837;48.888;8.998;2022-09-09T14:26:14;22.83;;;16.83;;
19402;SDS011;9837;48.888;8.998;2022-09-09T14:28:40;16.80;;;15.05;;
19402;SDS011;9837;48.888;8.998;2022-09-09T14:31:06;19.38;;;15.38;;
19402;SDS011;9837;48.888;8.998;2022-09-09T14:33:35;29.23;;;21.50;;
19402;SDS011;9837;48.888;8.998;2022-09-09T14:36:04;16.92;;;14.05;;
19402;SDS011;9837;48.888;8.998;2022-09-09T14:38:32;33.88;;;20.95;;
19402;SDS011;9837;48.888;8.998;2022-09-09T14:41:03;16.52;;;14.60;;
19402;SDS011;9837;48.888;8.998;2022-09-09T14:43:29;27.05;;;15.60;;
19402;SDS011;9837;48.888;8.998;2022-09-09T14:46:06;23.73;;;17.20;;
19402;SDS011;9837;48.888;8.998;2022-09-09T14:48:40;18.83;;;17.25;;
19402;SDS011;9837;48.888;8.998;2022-09-09T14:53:33;45.95;;;26.52;;
19402;SDS011;9837;48.888;8.998;2022-09-09T14:56:03;20.93;;;15.60;;
19402;SDS011;9837;48.888;8.998;2022-09-09T14:58:32;22.63;;;14.47;;
19402;SDS011;9837;48.888;8.998;2022-09-09T15:01:03;14.77;;;12.53;;
19402;SDS011;9837;48.888;8.998;2022-09-09T15:03:37;20.77;;;11.50;;
19402;SDS011;9837;48.888;8.998;2022-09-09T15:06:10;21.97;;;13.37;;
19402;SDS011;9837;48.888;8.998;2022-09-09T15:08:37;18.67;;;11.50;;
19402;SDS011;9837;48.888;8.998;2022-09-09T15:11:05;14.07;;;11.83;;
19402;SDS011;9837;48.888;8.998;2022-09-09T15:13:35;15.63;;;13.93;;
19402;SDS011;9837;48.888;8.998;2022-09-09T15:18:31;21.57;;;13.10;;
19402;SDS011;9837;48.888;8.998;2022-09-09T15:20:58;16.73;;;13.87;;
19402;SDS011;9837;48.888;8.998;2022-09-09T15:23:26;18.20;;;16.30;;
19402;SDS011;9837;48.888;8.998;2022-09-09T15:25:53;14.00;;;12.33;;
19402;SDS011;9837;48.888;8.998;2022-09-09T15:28:20;16.47;;;12.20;;
19402;SDS011;9837;48.888;8.998;2022-09-09T15:30:47;16.77;;;13.70;;
19402;SDS011;9837;48.888;8.998;2022-09-09T15:33:14;27.57;;;10.30;;
19402;SDS011;9837;48.888;8.998;2022-09-09T15:35:40;24.90;;;14.67;;
19402;SDS011;9837;48.888;8.998;2022-09-09T15:38:06;14.77;;;10.23;;
19402;SDS011;9837;48.888;8.998;2022-09-09T15:40:33;16.47;;;11.57;;
19402;SDS011;9837;48.888;8.998;2022-09-09T15:43:02;9.67;;;8.70;;
19402;SDS011;9837;48.888;8.998;2022-09-09T15:45:29;15.13;;;10.97;;
19402;SDS011;9837;48.888;8.998;2022-09-09T15:48:04;10.73;;;9.40;;
19402;SDS011;9837;48.888;8.998;2022-09-09T15:50:33;19.77;;;11.03;;
19402;SDS011;9837;48.888;8.998;2022-09-09T15:53:01;18.20;;;11.13;;
19402;SDS011;9837;48.888;8.998;2022-09-09T15:55:32;11.00;;;9.80;;
19402;SDS011;9837;48.888;8.998;2022-09-09T15:57:58;16.43;;;11.80;;
19402;SDS011;9837;48.888;8.998;2022-09-09T16:00:24;13.60;;;8.80;;
19402;SDS011;9837;48.888;8.998;2022-09-09T16:02:50;15.17;;;9.73;;
19402;SDS011;9837;48.888;8.998;2022-09-09T16:05:15;15.67;;;8.63;;
19402;SDS011;9837;48.888;8.998;2022-09-09T16:07:41;16.53;;;8.20;;
19402;SDS011;9837;48.888;8.998;2022-09-09T16:10:11;34.77;;;16.63;;
19402;SDS011;9837;48.888;8.998;2022-09-09T16:12:42;29.23;;;13.43;;
19402;SDS011;9837;48.888;8.998;2022-09-09T16:15:08;7.73;;;5.10;;
19402;SDS011;9837;48.888;8.998;2022-09-09T16:17:34;6.63;;;3.73;;
19402;SDS011;9837;48.888;8.998;2022-09-09T16:20:03;9.00;;;4.73;;
19402;SDS011;9837;48.888;8.998;2022-09-09T16:22:31;1.77;;;1.63;;
19402;SDS011;9837;48.888;8.998;2022-09-09T16:24:57;5.93;;;2.80;;
19402;SDS011;9837;48.888;8.998;2022-09-09T16:27:24;2.57;;;2.37;;
19402;SDS011;9837;48.888;8.998;2022-09-09T16:29:49;2.03;;;1.70;;
19402;SDS011;9837;48.888;8.998;2022-09-09T16:32:16;3.97;;;2.17;;
19402;SDS011;9837;48.888;8.998;2022-09-09T16:34:42;1.10;;;1.07;;
19402;SDS011;9837;48.888;8.998;2022-09-09T16:37:08;3.90;;;2.40;;
19402;SDS011;9837;48.888;8.998;2022-09-09T16:39:36;3.57;;;1.93;;
19402;SDS011;9837;48.888;8.998;2022-09-09T16:42:02;5.87;;;3.17;;
19402;SDS011;9837;48.888;8.998;2022-09-09T16:44:30;2.07;;;1.87;;
19402;SDS011;9837;48.888;8.998;2022-09-09T16:46:55;8.03;;;2.63;;
19402;SDS011;9837;48.888;8.998;2022-09-09T16:49:22;4.33;;;3.37;;
19402;SDS011;9837;48.888;8.998;2022-09-09T16:51:48;3.57;;;2.60;;
19402;SDS011;9837;48.888;8.998;2022-09-09T16:54:18;6.53;;;3.07;;
19402;SDS011;9837;48.888;8.998;2022-09-09T16:56:45;2.80;;;2.57;;
19402;SDS011;9837;48.888;8.998;2022-09-09T16:59:13;3.37;;;2.77;;
19402;SDS011;9837;48.888;8.998;2022-09-09T17:01:44;7.93;;;4.03;;
19402;SDS011;9837;48.888;8.998;2022-09-09T17:04:11;4.30;;;3.90;;
19402;SDS011;9837;48.888;8.998;2022-09-09T17:06:44;2.17;;;2.07;;
19402;SDS011;9837;48.888;8.998;2022-09-09T17:09:14;2.73;;;2.50;;
19402;SDS011;9837;48.888;8.998;2022-09-09T17:11:40;3.07;;;2.70;;
19402;SDS011;9837;48.888;8.998;2022-09-09T17:14:07;13.47;;;4.70;;
19402;SDS011;9837;48.888;8.998;2022-09-09T17:16:36;8.80;;;4.40;;
19402;SDS011;9837;48.888;8.998;2022-09-09T17:19:04;2.27;;;1.80;;
19402;SDS011;9837;48.888;8.998;2022-09-09T17:21:31;3.83;;;2.87;;
19402;SDS011;9837;48.888;8.998;2022-09-09T17:23:57;9.77;;;4.13;;
19402;SDS011;9837;48.888;8.998;2022-09-09T17:26:25;2.23;;;1.50;;
19402;SDS011;9837;48.888;8.998;2022-09-09T17:28:52;3.33;;;3.03;;
19402;SDS011;9837;48.888;8.998;2022-09-09T17:31:19;4.93;;;3.13;;
19402;SDS011;9837;48.888;8.998;2022-09-09T17:33:46;3.37;;;2.87;;
19402;SDS011;9837;48.888;8.998;2022-09-09T17:36:15;3.47;;;3.10;;
19402;SDS011;9837;48.888;8.998;2022-09-09T17:38:46;5.13;;;3.43;;
19402;SDS011;9837;48.888;8.998;2022-09-09T17:41:20;9.57;;;3.80;;
19402;SDS011;9837;48.888;8.998;2022-09-09T17:43:47;5.90;;;4.00;;
19402;SDS011;9837;48.888;8.998;2022-09-09T17:46:18;4.60;;;3.40;;
19402;SDS011;9837;48.888;8.998;2022-09-09T17:49:00;8.73;;;4.77;;
19402;SDS011;9837;48.888;8.998;2022-09-09T17:51:28;7.83;;;3.37;;
19402;SDS011;9837;48.888;8.998;2022-09-09T17:53:57;2.53;;;2.33;;
19402;SDS011;9837;48.888;8.998;2022-09-09T17:56:24;3.80;;;3.20;;
19402;SDS011;9837;48.888;8.998;2022-09-09T17:58:53;2.90;;;2.70;;
19402;SDS011;9837;48.888;8.998;2022-09-09T18:01:20;3.73;;;3.17;;
19402;SDS011;9837;48.888;8.998;2022-09-09T18:03:49;3.80;;;2.90;;
19402;SDS011;9837;48.888;8.998;2022-09-09T18:06:20;7.43;;;3.97;;
19402;SDS011;9837;48.888;8.998;2022-09-09T18:09:15;2.90;;;2.70;;
19402;SDS011;9837;48.888;8.998;2022-09-09T18:11:43;6.43;;;2.97;;
19402;SDS011;9837;48.888;8.998;2022-09-09T18:14:12;2.00;;;1.90;;
19402;SDS011;9837;48.888;8.998;2022-09-09T18:16:40;6.70;;;5.63;;
19402;SDS011;9837;48.888;8.998;2022-09-09T18:19:07;2.30;;;2.10;;
19402;SDS011;9837;48.888;8.998;2022-09-09T18:21:37;5.33;;;3.47;;
19402;SDS011;9837;48.888;8.998;2022-09-09T18:24:04;3.73;;;2.93;;
19402;SDS011;9837;48.888;8.998;2022-09-09T18:26:31;8.47;;;5.37;;
19402;SDS011;9837;48.888;8.998;2022-09-09T18:29:10;3.00;;;2.77;;
19402;SDS011;9837;48.888;8.998;2022-09-09T18:31:39;3.67;;;3.37;;
19402;SDS011;9837;48.888;8.998;2022-09-09T18:34:06;4.20;;;2.47;;
19402;SDS011;9837;48.888;8.998;2022-09-09T18:36:35;3.33;;;2.93;;
19402;SDS011;9837;48.888;8.998;2022-09-09T18:39:03;4.00;;;3.00;;
19402;SDS011;9837;48.888;8.998;2022-09-09T18:41:32;1.47;;;1.37;;
19402;SDS011;9837;48.888;8.998;2022-09-09T18:44:06;2.77;;;1.83;;
19402;SDS011;9837;48.888;8.998;2022-09-09T18:46:40;3.80;;;3.43;;
19402;SDS011;9837;48.888;8.998;2022-09-09T18:49:08;5.90;;;2.97;;
19402;SDS011;9837;48.888;8.998;2022-09-09T18:51:36;5.90;;;3.90;;
19402;SDS011;9837;48.888;8.998;2022-09-09T18:54:05;6.33;;;3.37;;
19402;SDS011;9837;48.888;8.998;2022-09-09T18:56:33;7.07;;;4.37;;
19402;SDS011;9837;48.888;8.998;2022-09-09T18:59:00;3.20;;;2.03;;
19402;SDS011;9837;48.888;8.998;2022-09-09T19:01:27;5.33;;;4.27;;
19402;SDS011;9837;48.888;8.998;2022-09-09T19:03:53;5.80;;;2.43;;
19402;SDS011;9837;48.888;8.998;2022-09-09T19:06:24;5.30;;;3.90;;
19402;SDS011;9837;48.888;8.998;2022-09-09T19:08:51;2.23;;;2.13;;
19402;SDS011;9837;48.888;8.998;2022-09-09T19:11:19;3.80;;;2.50;;
19402;SDS011;9837;48.888;8.998;2022-09-09T19:13:59;3.90;;;3.60;;
19402;SDS011;9837;48.888;8.998;2022-09-09T19:16:27;5.77;;;3.53;;
19402;SDS011;9837;48.888;8.998;2022-09-09T19:18:57;6.30;;;3.30;;
19402;SDS011;9837;48.888;8.998;2022-09-09T19:21:25;3.53;;;2.83;;
19402;SDS011;9837;48.888;8.998;2022-09-09T19:23:59;3.87;;;3.53;;
19402;SDS011;9837;48.888;8.998;2022-09-09T19:26:27;5.80;;;4.37;;
19402;SDS011;9837;48.888;8.998;2022-09-09T19:28:56;4.23;;;3.23;;
19402;SDS011;9837;48.888;8.998;2022-09-09T19:31:23;5.97;;;4.27;;
19402;SDS011;9837;48.888;8.998;2022-09-09T19:33:52;4.20;;;3.90;;
19402;SDS011;9837;48.888;8.998;2022-09-09T19:36:19;8.40;;;4.30;;
19402;SDS011;9837;48.888;8.998;2022-09-09T19:38:47;5.80;;;4.70;;
19402;SDS011;9837;48.888;8.998;2022-09-09T19:41:17;13.33;;;7.87;;
19402;SDS011;9837;48.888;8.998;2022-09-09T19:43:45;2.60;;;2.40;;
19402;SDS011;9837;48.888;8.998;2022-09-09T19:46:12;3.77;;;3.47;;
19402;SDS011;9837;48.888;8.998;2022-09-09T19:48:39;10.23;;;6.17;;
19402;SDS011;9837;48.888;8.998;2022-09-09T19:51:07;3.17;;;2.67;;
19402;SDS011;9837;48.888;8.998;2022-09-09T19:53:39;3.67;;;3.10;;
19402;SDS011;9837;48.888;8.998;2022-09-09T19:56:09;3.10;;;2.80;;
19402;SDS011;9837;48.888;8.998;2022-09-09T19:58:36;7.73;;;5.17;;
19402;SDS011;9837;48.888;8.998;2022-09-09T20:01:25;4.40;;;4.10;;
19402;SDS011;9837;48.888;8.998;2022-09-09T20:03:52;4.10;;;3.77;;
19402;SDS011;9837;48.888;8.998;2022-09-09T20:06:22;3.17;;;2.33;;
19402;SDS011;9837;48.888;8.998;2022-09-09T20:08:53;2.50;;;2.30;;
19402;SDS011;9837;48.888;8.998;2022-09-09T20:11:20;10.23;;;4.17;;
19402;SDS011;9837;48.888;8.998;2022-09-09T20:13:47;4.53;;;4.00;;
19402;SDS011;9837;48.888;8.998;2022-09-09T20:16:14;3.77;;;2.90;;
19402;SDS011;9837;48.888;8.998;2022-09-09T20:18:43;3.93;;;3.63;;
19402;SDS011;9837;48.888;8.998;2022-09-09T20:21:15;3.23;;;1.83;;
19402;SDS011;9837;48.888;8.998;2022-09-09T20:23:44;5.37;;;2.80;;
19402;SDS011;9837;48.888;8.998;2022-09-09T20:26:13;2.50;;;1.80;;
19402;SDS011;9837;48.888;8.998;2022-09-09T20:28:42;10.17;;;4.67;;
19402;SDS011;9837;48.888;8.998;2022-09-09T20:31:10;3.67;;;3.30;;
19402;SDS011;9837;48.888;8.998;2022-09-09T20:33:38;3.63;;;3.33;;
19402;SDS011;9837;48.888;8.998;2022-09-09T20:38:35;8.70;;;4.13;;
19402;SDS011;9837;48.888;8.998;2022-09-09T20:41:02;2.77;;;2.53;;
19402;SDS011;9837;48.888;8.998;2022-09-09T20:43:28;6.60;;;4.57;;
19402;SDS011;9837;48.888;8.998;2022-09-09T20:45:54;6.03;;;2.83;;
19402;SDS011;9837;48.888;8.998;2022-09-09T20:48:22;6.87;;;4.77;;
19402;SDS011;9837;48.888;8.998;2022-09-09T20:50:48;6.03;;;3.40;;
19402;SDS011;9837;48.888;8.998;2022-09-09T20:53:14;3.13;;;2.43;;
19402;SDS011;9837;48.888;8.998;2022-09-09T20:55:40;3.40;;;2.83;;
19402;SDS011;9837;48.888;8.998;2022-09-09T20:58:06;3.23;;;2.43;;
19402;SDS011;9837;48.888;8.998;2022-09-09T21:00:32;4.63;;;3.30;;
19402;SDS011;9837;48.888;8.998;2022-09-09T21:02:58;2.30;;;1.47;;
19402;SDS011;9837;48.888;8.998;2022-09-09T21:05:24;3.60;;;2.23;;
19402;SDS011;9837;48.888;8.998;2022-09-09T21:07:51;7.27;;;2.90;;
19402;SDS011;9837;48.888;8.998;2022-09-09T21:10:17;3.77;;;3.43;;
19402;SDS011;9837;48.888;8.998;2022-09-09T21:12:44;6.17;;;5.57;;
19402;SDS011;9837;48.888;8.998;2022-09-09T21:15:10;7.50;;;4.30;;
19402;SDS011;9837;48.888;8.998;2022-09-09T21:17:36;6.93;;;4.83;;
19402;SDS011;9837;48.888;8.998;2022-09-09T21:20:04;6.50;;;5.77;;
19402;SDS011;9837;48.888;8.998;2022-09-09T21:22:30;5.77;;;3.83;;
19402;SDS011;9837;48.888;8.998;2022-09-09T21:24:56;5.33;;;2.50;;
19402;SDS011;9837;48.888;8.998;2022-09-09T21:27:22;4.40;;;3.17;;
19402;SDS011;9837;48.888;8.998;2022-09-09T21:29:48;3.67;;;2.00;;
19402;SDS011;9837;48.888;8.998;2022-09-09T21:32:14;7.70;;;3.97;;
19402;SDS011;9837;48.888;8.998;2022-09-09T21:34:41;3.17;;;1.73;;
19402;SDS011;9837;48.888;8.998;2022-09-09T21:37:07;3.83;;;2.27;;
19402;SDS011;9837;48.888;8.998;2022-09-09T21:39:33;2.60;;;2.20;;
19402;SDS011;9837;48.888;8.998;2022-09-09T21:41:59;5.67;;;3.77;;
19402;SDS011;9837;48.888;8.998;2022-09-09T21:44:25;5.73;;;3.57;;
19402;SDS011;9837;48.888;8.998;2022-09-09T21:46:51;8.23;;;5.20;;
19402;SDS011;9837;48.888;8.998;2022-09-09T21:49:17;10.60;;;6.37;;
19402;SDS011;9837;48.888;8.998;2022-09-09T21:51:43;5.67;;;5.10;;
19402;SDS011;9837;48.888;8.998;2022-09-09T21:54:10;4.17;;;3.77;;
19402;SDS011;9837;48.888;8.998;2022-09-09T21:56:38;6.83;;;6.13;;
19402;SDS011;9837;48.888;8.998;2022-09-09T21:59:03;9.03;;;5.70;;
19402;SDS011;9837;48.888;8.998;2022-09-09T22:01:29;16.27;;;14.93;;
19402;SDS011;9837;48.888;8.998;2022-09-09T22:03:57;3.60;;;3.27;;
19402;SDS011;9837;48.888;8.998;2022-09-09T22:06:25;6.87;;;3.97;;
19402;SDS011;9837;48.888;8.998;2022-09-09T22:08:51;6.63;;;3.17;;
19402;SDS011;9837;48.888;8.998;2022-09-09T22:11:20;3.93;;;2.77;;
19402;SDS011;9837;48.888;8.998;2022-09-09T22:13:47;9.93;;;5.60;;
19402;SDS011;9837;48.888;8.998;2022-09-09T22:16:14;5.27;;;3.50;;
19402;SDS011;9837;48.888;8.998;2022-09-09T22:18:42;5.53;;;3.70;;
